sensor_id;sensor_type;location;lat;lon;timestamp;temperature;humidity
74178;DHT22;62540;48.456;-4.456;2022-12-29T00:01:24;11.83;74.58
74178;DHT22;62540;48.456;-4.456;2022-12-29T00:03:50;11.79;74.55
74178;DHT22;62540;48.456;-4.456;2022-12-29T00:06:15;11.80;75.02
74178;DHT22;62540;48.456;-4.456;2022-12-29T00:08:41;11.79;75.21
74178;DHT22;62540;48.456;-4.456;2022-12-29T00:11:14;11.76;75.27
74178;DHT22;62540;48.456;-4.456;2022-12-29T00:13:40;11.70;75.47
74178;DHT22;62540;48.456;-4.456;2022-12-29T00:16:24;11.73;75.49
74178;DHT22;62540;48.456;-4.456;2022-12-29T00:18:50;11.74;75.48
74178;DHT22;62540;48.456;-4.456;2022-12-29T00:21:17;11.73;75.50
74178;DHT22;62540;48.456;-4.456;2022-12-29T00:24:02;11.74;75.12
74178;DHT22;62540;48.456;-4.456;2022-12-29T00:26:55;11.74;75.61
74178;DHT22;62540;48.456;-4.456;2022-12-29T00:29:40;11.76;75.65
74178;DHT22;62540;48.456;-4.456;2022-12-29T00:32:24;11.82;76.21
74178;DHT22;62540;48.456;-4.456;2022-12-29T00:35:10;11.83;75.86
74178;DHT22;62540;48.456;-4.456;2022-12-29T00:37:42;11.74;75.36
74178;DHT22;62540;48.456;-4.456;2022-12-29T00:40:27;11.79;75.45
74178;DHT22;62540;48.456;-4.456;2022-12-29T00:43:11;11.76;75.32
74178;DHT22;62540;48.456;-4.456;2022-12-29T00:45:55;11.73;75.33
74178;DHT22;62540;48.456;-4.456;2022-12-29T00:48:21;11.74;74.63
74178;DHT22;62540;48.456;-4.456;2022-12-29T00:51:07;11.74;74.39
74178;DHT22;62540;48.456;-4.456;2022-12-29T00:53:33;11.70;73.49
74178;DHT22;62540;48.456;-4.456;2022-12-29T00:55:58;11.66;73.28
74178;DHT22;62540;48.456;-4.456;2022-12-29T00:58:27;11.62;72.83
74178;DHT22;62540;48.456;-4.456;2022-12-29T01:00:52;11.61;72.64
74178;DHT22;62540;48.456;-4.456;2022-12-29T01:03:18;11.61;72.63
74178;DHT22;62540;48.456;-4.456;2022-12-29T01:05:43;11.62;71.98
74178;DHT22;62540;48.456;-4.456;2022-12-29T01:08:09;11.62;71.21
74178;DHT22;62540;48.456;-4.456;2022-12-29T01:10:34;11.63;71.14
74178;DHT22;62540;48.456;-4.456;2022-12-29T01:12:59;11.65;70.60
74178;DHT22;62540;48.456;-4.456;2022-12-29T01:15:25;11.62;71.85
74178;DHT22;62540;48.456;-4.456;2022-12-29T01:17:50;11.63;72.10
74178;DHT22;62540;48.456;-4.456;2022-12-29T01:20:16;11.55;70.02
74178;DHT22;62540;48.456;-4.456;2022-12-29T01:22:41;11.52;69.71
74178;DHT22;62540;48.456;-4.456;2022-12-29T01:25:08;11.45;70.68
74178;DHT22;62540;48.456;-4.456;2022-12-29T01:27:34;11.42;70.96
74178;DHT22;62540;48.456;-4.456;2022-12-29T01:29:59;11.43;71.04
74178;DHT22;62540;48.456;-4.456;2022-12-29T01:32:24;11.36;70.85
74178;DHT22;62540;48.456;-4.456;2022-12-29T01:34:50;11.34;71.78
74178;DHT22;62540;48.456;-4.456;2022-12-29T01:37:15;11.29;72.57
74178;DHT22;62540;48.456;-4.456;2022-12-29T01:39:41;11.25;72.99
74178;DHT22;62540;48.456;-4.456;2022-12-29T01:42:14;11.24;73.54
74178;DHT22;62540;48.456;-4.456;2022-12-29T01:47:15;11.19;73.72
74178;DHT22;62540;48.456;-4.456;2022-12-29T01:49:43;11.19;73.42
74178;DHT22;62540;48.456;-4.456;2022-12-29T01:52:08;11.14;73.24
74178;DHT22;62540;48.456;-4.456;2022-12-29T01:54:37;11.15;73.27
74178;DHT22;62540;48.456;-4.456;2022-12-29T01:57:08;11.12;73.12
74178;DHT22;62540;48.456;-4.456;2022-12-29T01:59:39;11.15;73.19
74178;DHT22;62540;48.456;-4.456;2022-12-29T02:02:07;11.15;73.19
74178;DHT22;62540;48.456;-4.456;2022-12-29T02:04:33;11.18;73.53
74178;DHT22;62540;48.456;-4.456;2022-12-29T02:07:03;11.24;73.62
74178;DHT22;62540;48.456;-4.456;2022-12-29T02:09:30;11.22;73.64
74178;DHT22;62540;48.456;-4.456;2022-12-29T02:11:56;11.22;73.85
74178;DHT22;62540;48.456;-4.456;2022-12-29T02:14:23;11.25;73.69
74178;DHT22;62540;48.456;-4.456;2022-12-29T02:20:17;11.29;72.98
74178;DHT22;62540;48.456;-4.456;2022-12-29T02:32:24;11.31;73.44
74178;DHT22;62540;48.456;-4.456;2022-12-29T02:39:52;11.35;74.17
74178;DHT22;62540;48.456;-4.456;2022-12-29T02:42:26;11.25;74.62
74178;DHT22;62540;48.456;-4.456;2022-12-29T02:47:41;11.19;72.79
74178;DHT22;62540;48.456;-4.456;2022-12-29T02:55:31;11.00;72.21
74178;DHT22;62540;48.456;-4.456;2022-12-29T02:58:24;10.95;71.78
74178;DHT22;62540;48.456;-4.456;2022-12-29T03:01:14;10.93;72.30
74178;DHT22;62540;48.456;-4.456;2022-12-29T03:06:26;10.85;73.28
74178;DHT22;62540;48.456;-4.456;2022-12-29T03:18:55;10.87;73.64
74178;DHT22;62540;48.456;-4.456;2022-12-29T03:21:43;10.90;73.49
74178;DHT22;62540;48.456;-4.456;2022-12-29T03:24:32;10.97;73.53
74178;DHT22;62540;48.456;-4.456;2022-12-29T03:27:00;11.01;73.25
74178;DHT22;62540;48.456;-4.456;2022-12-29T03:29:28;11.03;70.85
74178;DHT22;62540;48.456;-4.456;2022-12-29T03:31:55;11.05;68.96
74178;DHT22;62540;48.456;-4.456;2022-12-29T03:34:22;11.10;68.36
74178;DHT22;62540;48.456;-4.456;2022-12-29T03:37:06;11.03;67.94
74178;DHT22;62540;48.456;-4.456;2022-12-29T03:39:33;11.01;68.53
74178;DHT22;62540;48.456;-4.456;2022-12-29T03:42:02;10.97;67.89
74178;DHT22;62540;48.456;-4.456;2022-12-29T03:44:36;10.94;68.44
74178;DHT22;62540;48.456;-4.456;2022-12-29T03:47:03;10.90;69.23
74178;DHT22;62540;48.456;-4.456;2022-12-29T03:49:29;10.91;69.96
74178;DHT22;62540;48.456;-4.456;2022-12-29T03:51:54;10.83;70.94
74178;DHT22;62540;48.456;-4.456;2022-12-29T03:54:21;10.84;71.43
74178;DHT22;62540;48.456;-4.456;2022-12-29T03:56:46;10.87;72.19
74178;DHT22;62540;48.456;-4.456;2022-12-29T03:59:12;10.85;72.66
74178;DHT22;62540;48.456;-4.456;2022-12-29T04:01:37;10.85;73.33
74178;DHT22;62540;48.456;-4.456;2022-12-29T04:04:03;10.83;73.39
74178;DHT22;62540;48.456;-4.456;2022-12-29T04:06:28;10.87;72.70
74178;DHT22;62540;48.456;-4.456;2022-12-29T04:08:54;10.81;72.23
74178;DHT22;62540;48.456;-4.456;2022-12-29T04:11:21;10.81;71.44
74178;DHT22;62540;48.456;-4.456;2022-12-29T04:13:46;10.81;70.81
74178;DHT22;62540;48.456;-4.456;2022-12-29T04:16:12;10.84;70.69
74178;DHT22;62540;48.456;-4.456;2022-12-29T04:18:37;10.83;70.75
74178;DHT22;62540;48.456;-4.456;2022-12-29T04:21:03;10.85;71.01
74178;DHT22;62540;48.456;-4.456;2022-12-29T04:23:35;10.78;71.33
74178;DHT22;62540;48.456;-4.456;2022-12-29T04:26:02;10.80;71.48
74178;DHT22;62540;48.456;-4.456;2022-12-29T04:28:27;10.83;71.73
74178;DHT22;62540;48.456;-4.456;2022-12-29T04:30:53;10.83;72.21
74178;DHT22;62540;48.456;-4.456;2022-12-29T04:33:19;10.81;72.43
74178;DHT22;62540;48.456;-4.456;2022-12-29T04:35:44;10.81;72.90
74178;DHT22;62540;48.456;-4.456;2022-12-29T04:38:10;10.78;73.08
74178;DHT22;62540;48.456;-4.456;2022-12-29T04:40:38;10.76;73.33
74178;DHT22;62540;48.456;-4.456;2022-12-29T04:43:03;10.78;73.21
74178;DHT22;62540;48.456;-4.456;2022-12-29T04:45:29;10.77;73.32
74178;DHT22;62540;48.456;-4.456;2022-12-29T04:47:54;10.76;73.19
74178;DHT22;62540;48.456;-4.456;2022-12-29T04:50:20;10.77;73.37
74178;DHT22;62540;48.456;-4.456;2022-12-29T04:52:45;10.74;73.49
74178;DHT22;62540;48.456;-4.456;2022-12-29T04:55:10;10.74;73.73
74178;DHT22;62540;48.456;-4.456;2022-12-29T04:57:36;10.77;74.20
74178;DHT22;62540;48.456;-4.456;2022-12-29T05:00:03;10.80;74.17
74178;DHT22;62540;48.456;-4.456;2022-12-29T05:02:28;10.83;74.33
74178;DHT22;62540;48.456;-4.456;2022-12-29T05:04:54;10.84;74.31
74178;DHT22;62540;48.456;-4.456;2022-12-29T05:07:19;10.85;74.16
74178;DHT22;62540;48.456;-4.456;2022-12-29T05:09:44;10.90;73.62
74178;DHT22;62540;48.456;-4.456;2022-12-29T05:12:11;10.87;72.98
74178;DHT22;62540;48.456;-4.456;2022-12-29T05:14:36;10.87;72.10
74178;DHT22;62540;48.456;-4.456;2022-12-29T05:17:02;10.88;71.13
74178;DHT22;62540;48.456;-4.456;2022-12-29T05:19:27;10.84;70.92
74178;DHT22;62540;48.456;-4.456;2022-12-29T05:21:52;10.81;70.52
74178;DHT22;62540;48.456;-4.456;2022-12-29T05:24:19;10.77;70.28
74178;DHT22;62540;48.456;-4.456;2022-12-29T05:26:45;10.76;70.73
74178;DHT22;62540;48.456;-4.456;2022-12-29T05:29:10;10.74;70.97
74178;DHT22;62540;48.456;-4.456;2022-12-29T05:31:35;10.68;70.83
74178;DHT22;62540;48.456;-4.456;2022-12-29T05:34:02;10.70;71.14
74178;DHT22;62540;48.456;-4.456;2022-12-29T05:36:27;10.71;71.44
74178;DHT22;62540;48.456;-4.456;2022-12-29T05:38:53;10.71;71.63
74178;DHT22;62540;48.456;-4.456;2022-12-29T05:41:18;10.76;72.08
74178;DHT22;62540;48.456;-4.456;2022-12-29T05:43:44;10.78;72.42
74178;DHT22;62540;48.456;-4.456;2022-12-29T05:46:09;10.78;73.03
74178;DHT22;62540;48.456;-4.456;2022-12-29T05:48:35;10.83;72.95
74178;DHT22;62540;48.456;-4.456;2022-12-29T05:51:00;10.83;73.19
74178;DHT22;62540;48.456;-4.456;2022-12-29T05:53:25;10.87;73.17
74178;DHT22;62540;48.456;-4.456;2022-12-29T05:55:51;10.83;73.55
74178;DHT22;62540;48.456;-4.456;2022-12-29T05:58:16;10.80;73.76
74178;DHT22;62540;48.456;-4.456;2022-12-29T06:00:42;10.76;73.50
74178;DHT22;62540;48.456;-4.456;2022-12-29T06:03:08;10.78;73.40
74178;DHT22;62540;48.456;-4.456;2022-12-29T06:05:33;10.83;72.54
74178;DHT22;62540;48.456;-4.456;2022-12-29T06:07:59;10.78;72.32
74178;DHT22;62540;48.456;-4.456;2022-12-29T06:10:24;10.78;71.43
74178;DHT22;62540;48.456;-4.456;2022-12-29T06:12:50;10.80;71.10
74178;DHT22;62540;48.456;-4.456;2022-12-29T06:15:15;10.80;71.27
74178;DHT22;62540;48.456;-4.456;2022-12-29T06:17:41;10.81;69.77
74178;DHT22;62540;48.456;-4.456;2022-12-29T06:20:07;10.77;69.58
74178;DHT22;62540;48.456;-4.456;2022-12-29T06:22:33;10.80;70.10
74178;DHT22;62540;48.456;-4.456;2022-12-29T06:24:58;10.84;69.68
74178;DHT22;62540;48.456;-4.456;2022-12-29T06:27:24;10.88;70.03
74178;DHT22;62540;48.456;-4.456;2022-12-29T06:29:49;10.91;69.29
74178;DHT22;62540;48.456;-4.456;2022-12-29T06:32:15;10.87;69.01
74178;DHT22;62540;48.456;-4.456;2022-12-29T06:34:40;10.74;71.39
74178;DHT22;62540;48.456;-4.456;2022-12-29T06:37:06;10.71;72.27
74178;DHT22;62540;48.456;-4.456;2022-12-29T06:39:32;10.74;72.63
74178;DHT22;62540;48.456;-4.456;2022-12-29T06:41:57;10.78;72.62
74178;DHT22;62540;48.456;-4.456;2022-12-29T06:44:23;10.78;72.34
74178;DHT22;62540;48.456;-4.456;2022-12-29T06:46:49;10.71;71.89
74178;DHT22;62540;48.456;-4.456;2022-12-29T06:49:14;10.70;72.25
74178;DHT22;62540;48.456;-4.456;2022-12-29T06:51:40;10.68;70.75
74178;DHT22;62540;48.456;-4.456;2022-12-29T06:54:05;10.64;68.38
74178;DHT22;62540;48.456;-4.456;2022-12-29T06:56:31;10.63;67.41
74178;DHT22;62540;48.456;-4.456;2022-12-29T06:58:56;10.64;68.33
74178;DHT22;62540;48.456;-4.456;2022-12-29T07:01:22;10.64;65.74
74178;DHT22;62540;48.456;-4.456;2022-12-29T07:03:47;10.63;66.23
74178;DHT22;62540;48.456;-4.456;2022-12-29T07:06:13;10.61;67.00
74178;DHT22;62540;48.456;-4.456;2022-12-29T07:08:38;10.61;67.58
74178;DHT22;62540;48.456;-4.456;2022-12-29T07:11:05;10.63;68.05
74178;DHT22;62540;48.456;-4.456;2022-12-29T07:13:30;10.59;68.65
74178;DHT22;62540;48.456;-4.456;2022-12-29T07:15:56;10.61;68.81
74178;DHT22;62540;48.456;-4.456;2022-12-29T07:18:21;10.61;69.31
74178;DHT22;62540;48.456;-4.456;2022-12-29T07:20:46;10.56;69.32
74178;DHT22;62540;48.456;-4.456;2022-12-29T07:23:12;10.60;69.79
74178;DHT22;62540;48.456;-4.456;2022-12-29T07:25:37;10.56;70.10
74178;DHT22;62540;48.456;-4.456;2022-12-29T07:28:05;10.59;70.40
74178;DHT22;62540;48.456;-4.456;2022-12-29T07:30:30;10.59;70.83
74178;DHT22;62540;48.456;-4.456;2022-12-29T07:32:56;10.60;72.01
74178;DHT22;62540;48.456;-4.456;2022-12-29T07:35:22;10.52;73.28
74178;DHT22;62540;48.456;-4.456;2022-12-29T07:37:47;10.53;73.77
74178;DHT22;62540;48.456;-4.456;2022-12-29T07:40:13;10.55;73.58
74178;DHT22;62540;48.456;-4.456;2022-12-29T07:42:38;10.57;73.39
74178;DHT22;62540;48.456;-4.456;2022-12-29T07:45:04;10.57;72.63
74178;DHT22;62540;48.456;-4.456;2022-12-29T07:47:29;10.49;72.07
74178;DHT22;62540;48.456;-4.456;2022-12-29T07:49:55;10.46;71.51
74178;DHT22;62540;48.456;-4.456;2022-12-29T07:52:20;10.43;71.29
74178;DHT22;62540;48.456;-4.456;2022-12-29T07:54:45;10.39;70.40
74178;DHT22;62540;48.456;-4.456;2022-12-29T07:57:11;10.35;70.73
74178;DHT22;62540;48.456;-4.456;2022-12-29T07:59:36;10.35;70.53
74178;DHT22;62540;48.456;-4.456;2022-12-29T08:02:02;10.30;70.27
74178;DHT22;62540;48.456;-4.456;2022-12-29T08:04:27;10.30;70.16
74178;DHT22;62540;48.456;-4.456;2022-12-29T08:06:53;10.28;70.63
74178;DHT22;62540;48.456;-4.456;2022-12-29T08:09:18;10.29;70.62
74178;DHT22;62540;48.456;-4.456;2022-12-29T08:11:44;10.28;70.32
74178;DHT22;62540;48.456;-4.456;2022-12-29T08:14:10;10.30;70.61
74178;DHT22;62540;48.456;-4.456;2022-12-29T08:16:35;10.32;70.54
74178;DHT22;62540;48.456;-4.456;2022-12-29T08:19:01;10.36;70.88
74178;DHT22;62540;48.456;-4.456;2022-12-29T08:21:27;10.35;70.96
74178;DHT22;62540;48.456;-4.456;2022-12-29T08:23:52;10.35;70.64
74178;DHT22;62540;48.456;-4.456;2022-12-29T08:26:18;10.32;71.06
74178;DHT22;62540;48.456;-4.456;2022-12-29T08:28:43;10.36;71.68
74178;DHT22;62540;48.456;-4.456;2022-12-29T08:31:09;10.43;71.78
74178;DHT22;62540;48.456;-4.456;2022-12-29T08:33:35;10.47;71.85
74178;DHT22;62540;48.456;-4.456;2022-12-29T08:36:05;10.52;71.82
74178;DHT22;62540;48.456;-4.456;2022-12-29T08:38:31;10.53;71.93
74178;DHT22;62540;48.456;-4.456;2022-12-29T08:40:58;10.49;72.07
74178;DHT22;62540;48.456;-4.456;2022-12-29T08:43:24;10.50;72.31
74178;DHT22;62540;48.456;-4.456;2022-12-29T08:45:50;10.53;72.07
74178;DHT22;62540;48.456;-4.456;2022-12-29T08:48:15;10.56;72.00
74178;DHT22;62540;48.456;-4.456;2022-12-29T08:50:44;10.59;71.68
74178;DHT22;62540;48.456;-4.456;2022-12-29T08:53:10;10.56;70.56
74178;DHT22;62540;48.456;-4.456;2022-12-29T08:55:36;10.61;70.83
74178;DHT22;62540;48.456;-4.456;2022-12-29T08:58:01;10.64;70.25
74178;DHT22;62540;48.456;-4.456;2022-12-29T09:00:26;10.68;69.83
74178;DHT22;62540;48.456;-4.456;2022-12-29T09:02:52;10.76;69.49
74178;DHT22;62540;48.456;-4.456;2022-12-29T09:05:17;10.85;69.66
74178;DHT22;62540;48.456;-4.456;2022-12-29T09:07:43;10.93;69.11
74178;DHT22;62540;48.456;-4.456;2022-12-29T09:10:08;11.01;69.10
74178;DHT22;62540;48.456;-4.456;2022-12-29T09:12:34;11.07;69.59
74178;DHT22;62540;48.456;-4.456;2022-12-29T09:14:59;11.10;69.61
74178;DHT22;62540;48.456;-4.456;2022-12-29T09:17:25;11.07;70.69
74178;DHT22;62540;48.456;-4.456;2022-12-29T09:20:10;11.08;71.19
74178;DHT22;62540;48.456;-4.456;2022-12-29T09:22:36;11.05;71.07
74178;DHT22;62540;48.456;-4.456;2022-12-29T09:25:02;11.03;71.25
74178;DHT22;62540;48.456;-4.456;2022-12-29T09:27:27;11.01;71.73
74178;DHT22;62540;48.456;-4.456;2022-12-29T09:29:53;11.04;72.01
74178;DHT22;62540;48.456;-4.456;2022-12-29T09:32:18;11.01;72.05
74178;DHT22;62540;48.456;-4.456;2022-12-29T09:34:43;11.01;72.46
74178;DHT22;62540;48.456;-4.456;2022-12-29T09:37:09;10.95;73.00
74178;DHT22;62540;48.456;-4.456;2022-12-29T09:39:34;10.94;73.56
74178;DHT22;62540;48.456;-4.456;2022-12-29T09:42:27;10.90;73.38
74178;DHT22;62540;48.456;-4.456;2022-12-29T09:47:28;10.97;73.46
74178;DHT22;62540;48.456;-4.456;2022-12-29T09:50:05;11.05;73.29
74178;DHT22;62540;48.456;-4.456;2022-12-29T09:52:50;11.18;73.33
74178;DHT22;62540;48.456;-4.456;2022-12-29T09:55:30;11.32;73.01
74178;DHT22;62540;48.456;-4.456;2022-12-29T09:57:59;11.35;73.25
74178;DHT22;62540;48.456;-4.456;2022-12-29T10:00:50;11.39;73.18
74178;DHT22;62540;48.456;-4.456;2022-12-29T10:03:23;11.52;73.29
74178;DHT22;62540;48.456;-4.456;2022-12-29T10:06:10;11.59;72.65
74178;DHT22;62540;48.456;-4.456;2022-12-29T10:08:47;11.45;73.23
74178;DHT22;62540;48.456;-4.456;2022-12-29T10:11:27;11.34;72.55
74178;DHT22;62540;48.456;-4.456;2022-12-29T10:22:32;11.04;73.62
74178;DHT22;62540;48.456;-4.456;2022-12-29T10:25:18;11.12;74.01
74178;DHT22;62540;48.456;-4.456;2022-12-29T10:27:47;11.21;74.60
74178;DHT22;62540;48.456;-4.456;2022-12-29T10:30:13;11.24;74.12
74178;DHT22;62540;48.456;-4.456;2022-12-29T10:32:45;11.32;73.94
74178;DHT22;62540;48.456;-4.456;2022-12-29T10:35:18;11.52;74.52
74178;DHT22;62540;48.456;-4.456;2022-12-29T10:41:11;12.05;73.74
74178;DHT22;62540;48.456;-4.456;2022-12-29T10:43:47;12.28;73.18
74178;DHT22;62540;48.456;-4.456;2022-12-29T10:46:28;12.48;72.37
74178;DHT22;62540;48.456;-4.456;2022-12-29T10:48:54;12.72;72.33
74178;DHT22;62540;48.456;-4.456;2022-12-29T10:51:22;12.90;70.70
74178;DHT22;62540;48.456;-4.456;2022-12-29T10:56:48;13.39;70.17
74178;DHT22;62540;48.456;-4.456;2022-12-29T10:59:27;13.60;69.02
74178;DHT22;62540;48.456;-4.456;2022-12-29T11:01:59;13.74;69.40
74178;DHT22;62540;48.456;-4.456;2022-12-29T11:04:33;13.86;68.27
74178;DHT22;62540;48.456;-4.456;2022-12-29T11:07:00;13.89;67.88
74178;DHT22;62540;48.456;-4.456;2022-12-29T11:09:29;13.99;68.90
74178;DHT22;62540;48.456;-4.456;2022-12-29T11:11:56;14.13;67.87
74178;DHT22;62540;48.456;-4.456;2022-12-29T11:14:28;14.32;68.59
74178;DHT22;62540;48.456;-4.456;2022-12-29T11:17:00;14.30;66.42
74178;DHT22;62540;48.456;-4.456;2022-12-29T11:19:28;14.29;68.05
74178;DHT22;62540;48.456;-4.456;2022-12-29T11:21:54;14.25;67.41
74178;DHT22;62540;48.456;-4.456;2022-12-29T11:24:27;14.20;68.83
74178;DHT22;62540;48.456;-4.456;2022-12-29T11:27:16;13.99;67.83
74178;DHT22;62540;48.456;-4.456;2022-12-29T11:29:42;13.86;67.45
74178;DHT22;62540;48.456;-4.456;2022-12-29T11:34:47;13.48;68.14
74178;DHT22;62540;48.456;-4.456;2022-12-29T11:39:55;13.58;68.16
74178;DHT22;62540;48.456;-4.456;2022-12-29T11:42:48;13.67;67.87
74178;DHT22;62540;48.456;-4.456;2022-12-29T11:45:20;13.74;68.19
74178;DHT22;62540;48.456;-4.456;2022-12-29T11:47:54;13.89;68.64
74178;DHT22;62540;48.456;-4.456;2022-12-29T11:50:29;14.06;68.47
74178;DHT22;62540;48.456;-4.456;2022-12-29T11:53:03;14.15;67.88
74178;DHT22;62540;48.456;-4.456;2022-12-29T11:55:30;14.18;67.86
74178;DHT22;62540;48.456;-4.456;2022-12-29T11:57:58;14.08;67.23
74178;DHT22;62540;48.456;-4.456;2022-12-29T12:00:27;13.97;67.77
74178;DHT22;62540;48.456;-4.456;2022-12-29T12:03:00;13.90;68.45
74178;DHT22;62540;48.456;-4.456;2022-12-29T12:08:23;13.74;67.93
74178;DHT22;62540;48.456;-4.456;2022-12-29T12:13:53;13.26;69.16
74178;DHT22;62540;48.456;-4.456;2022-12-29T12:16:34;13.14;69.72
74178;DHT22;62540;48.456;-4.456;2022-12-29T12:21:41;13.02;69.95
74178;DHT22;62540;48.456;-4.456;2022-12-29T12:24:20;12.96;70.17
74178;DHT22;62540;48.456;-4.456;2022-12-29T12:26:56;12.92;70.20
74178;DHT22;62540;48.456;-4.456;2022-12-29T12:29:46;12.82;70.24
74178;DHT22;62540;48.456;-4.456;2022-12-29T12:32:17;12.71;70.28
74178;DHT22;62540;48.456;-4.456;2022-12-29T12:34:45;12.62;70.46
74178;DHT22;62540;48.456;-4.456;2022-12-29T12:37:32;12.48;70.14
74178;DHT22;62540;48.456;-4.456;2022-12-29T12:43:29;12.07;71.50
74178;DHT22;62540;48.456;-4.456;2022-12-29T12:46:24;12.01;71.91
74178;DHT22;62540;48.456;-4.456;2022-12-29T12:57:53;12.20;73.45
74178;DHT22;62540;48.456;-4.456;2022-12-29T13:00:21;12.16;73.36
74178;DHT22;62540;48.456;-4.456;2022-12-29T13:12:07;12.34;73.55
74178;DHT22;62540;48.456;-4.456;2022-12-29T13:17:45;12.46;71.98
74178;DHT22;62540;48.456;-4.456;2022-12-29T13:20:36;12.42;72.38
74178;DHT22;62540;48.456;-4.456;2022-12-29T13:26:08;12.37;72.09
74178;DHT22;62540;48.456;-4.456;2022-12-29T13:28:53;12.42;72.35
74178;DHT22;62540;48.456;-4.456;2022-12-29T13:37:00;12.75;72.45
74178;DHT22;62540;48.456;-4.456;2022-12-29T13:39:46;12.93;72.25
74178;DHT22;62540;48.456;-4.456;2022-12-29T13:42:12;13.02;72.03
74178;DHT22;62540;48.456;-4.456;2022-12-29T13:44:44;13.09;71.88
74178;DHT22;62540;48.456;-4.456;2022-12-29T13:49:46;13.11;71.68
74178;DHT22;62540;48.456;-4.456;2022-12-29T13:55:29;13.09;71.89
74178;DHT22;62540;48.456;-4.456;2022-12-29T14:00:35;12.96;69.63
74178;DHT22;62540;48.456;-4.456;2022-12-29T14:05:36;12.85;68.93
74178;DHT22;62540;48.456;-4.456;2022-12-29T14:08:04;12.82;69.13
74178;DHT22;62540;48.456;-4.456;2022-12-29T14:10:35;12.81;68.74
74178;DHT22;62540;48.456;-4.456;2022-12-29T14:13:25;12.79;68.51
74178;DHT22;62540;48.456;-4.456;2022-12-29T14:15:53;12.81;69.25
74178;DHT22;62540;48.456;-4.456;2022-12-29T14:18:22;12.81;68.18
74178;DHT22;62540;48.456;-4.456;2022-12-29T14:20:54;12.82;69.10
74178;DHT22;62540;48.456;-4.456;2022-12-29T14:23:47;12.76;69.34
74178;DHT22;62540;48.456;-4.456;2022-12-29T14:28:46;12.72;69.76
74178;DHT22;62540;48.456;-4.456;2022-12-29T14:36:37;12.79;69.59
74178;DHT22;62540;48.456;-4.456;2022-12-29T14:39:03;12.79;70.53
74178;DHT22;62540;48.456;-4.456;2022-12-29T14:41:35;12.82;70.62
74178;DHT22;62540;48.456;-4.456;2022-12-29T14:47:07;12.89;71.02
74178;DHT22;62540;48.456;-4.456;2022-12-29T14:49:41;12.89;71.11
74178;DHT22;62540;48.456;-4.456;2022-12-29T14:52:20;12.86;71.46
74178;DHT22;62540;48.456;-4.456;2022-12-29T14:54:49;12.93;71.31
74178;DHT22;62540;48.456;-4.456;2022-12-29T14:57:34;12.93;71.09
74178;DHT22;62540;48.456;-4.456;2022-12-29T15:00:17;12.86;70.82
74178;DHT22;62540;48.456;-4.456;2022-12-29T15:02:54;12.79;70.18
74178;DHT22;62540;48.456;-4.456;2022-12-29T15:05:32;12.75;70.24
74178;DHT22;62540;48.456;-4.456;2022-12-29T15:07:59;12.78;69.73
74178;DHT22;62540;48.456;-4.456;2022-12-29T15:10:26;12.76;69.67
74178;DHT22;62540;48.456;-4.456;2022-12-29T15:13:03;12.73;69.37
74178;DHT22;62540;48.456;-4.456;2022-12-29T15:15:36;12.69;68.92
74178;DHT22;62540;48.456;-4.456;2022-12-29T15:18:27;12.65;69.26
74178;DHT22;62540;48.456;-4.456;2022-12-29T15:21:04;12.55;68.88
74178;DHT22;62540;48.456;-4.456;2022-12-29T15:23:32;12.46;68.88
74178;DHT22;62540;48.456;-4.456;2022-12-29T15:26:02;12.45;69.54
74178;DHT22;62540;48.456;-4.456;2022-12-29T15:28:41;12.40;69.63
74178;DHT22;62540;48.456;-4.456;2022-12-29T15:31:16;12.38;69.88
74178;DHT22;62540;48.456;-4.456;2022-12-29T15:33:47;12.40;69.78
74178;DHT22;62540;48.456;-4.456;2022-12-29T15:36:19;12.32;69.27
74178;DHT22;62540;48.456;-4.456;2022-12-29T15:38:45;12.28;69.48
74178;DHT22;62540;48.456;-4.456;2022-12-29T15:41:35;12.28;70.07
74178;DHT22;62540;48.456;-4.456;2022-12-29T15:46:51;12.27;69.75
74178;DHT22;62540;48.456;-4.456;2022-12-29T15:49:17;12.24;69.54
74178;DHT22;62540;48.456;-4.456;2022-12-29T15:51:43;12.21;69.73
74178;DHT22;62540;48.456;-4.456;2022-12-29T15:54:20;12.23;69.39
74178;DHT22;62540;48.456;-4.456;2022-12-29T15:56:47;12.20;69.53
74178;DHT22;62540;48.456;-4.456;2022-12-29T16:01:52;12.14;69.62
74178;DHT22;62540;48.456;-4.456;2022-12-29T16:04:18;12.11;69.51
74178;DHT22;62540;48.456;-4.456;2022-12-29T16:06:53;12.08;69.53
74178;DHT22;62540;48.456;-4.456;2022-12-29T16:09:35;12.04;69.85
74178;DHT22;62540;48.456;-4.456;2022-12-29T16:12:07;12.01;69.73
74178;DHT22;62540;48.456;-4.456;2022-12-29T16:17:03;11.90;70.09
74178;DHT22;62540;48.456;-4.456;2022-12-29T16:19:35;11.90;70.21
74178;DHT22;62540;48.456;-4.456;2022-12-29T16:22:03;11.83;70.29
74178;DHT22;62540;48.456;-4.456;2022-12-29T16:24:38;11.83;70.25
74178;DHT22;62540;48.456;-4.456;2022-12-29T16:27:31;11.77;70.46
74178;DHT22;62540;48.456;-4.456;2022-12-29T16:29:57;11.74;70.42
74178;DHT22;62540;48.456;-4.456;2022-12-29T16:32:26;11.72;70.59
74178;DHT22;62540;48.456;-4.456;2022-12-29T16:35:39;11.69;70.76
74178;DHT22;62540;48.456;-4.456;2022-12-29T16:38:15;11.69;70.76
74178;DHT22;62540;48.456;-4.456;2022-12-29T16:40:58;11.69;70.63
74178;DHT22;62540;48.456;-4.456;2022-12-29T16:43:36;11.63;70.57
74178;DHT22;62540;48.456;-4.456;2022-12-29T16:46:26;11.61;70.54
74178;DHT22;62540;48.456;-4.456;2022-12-29T16:48:54;11.56;70.42
74178;DHT22;62540;48.456;-4.456;2022-12-29T16:51:35;11.55;70.48
74178;DHT22;62540;48.456;-4.456;2022-12-29T16:54:02;11.53;70.36
74178;DHT22;62540;48.456;-4.456;2022-12-29T16:56:33;11.46;70.25
74178;DHT22;62540;48.456;-4.456;2022-12-29T16:59:16;11.43;70.41
74178;DHT22;62540;48.456;-4.456;2022-12-29T17:01:42;11.42;70.31
74178;DHT22;62540;48.456;-4.456;2022-12-29T17:04:11;11.39;70.44
74178;DHT22;62540;48.456;-4.456;2022-12-29T17:06:36;11.38;70.55
74178;DHT22;62540;48.456;-4.456;2022-12-29T17:09:02;11.35;70.62
74178;DHT22;62540;48.456;-4.456;2022-12-29T17:11:32;11.34;70.69
74178;DHT22;62540;48.456;-4.456;2022-12-29T17:14:31;11.28;70.63
74178;DHT22;62540;48.456;-4.456;2022-12-29T17:16:59;11.26;70.65
74178;DHT22;62540;48.456;-4.456;2022-12-29T17:19:33;11.21;70.59
74178;DHT22;62540;48.456;-4.456;2022-12-29T17:21:59;11.22;70.57
74178;DHT22;62540;48.456;-4.456;2022-12-29T17:24:25;11.16;70.52
74178;DHT22;62540;48.456;-4.456;2022-12-29T17:26:53;11.19;70.65
74178;DHT22;62540;48.456;-4.456;2022-12-29T17:29:39;11.12;70.60
74178;DHT22;62540;48.456;-4.456;2022-12-29T17:32:13;11.08;70.41
74178;DHT22;62540;48.456;-4.456;2022-12-29T17:34:40;11.05;70.54
74178;DHT22;62540;48.456;-4.456;2022-12-29T17:37:33;11.01;70.77
74178;DHT22;62540;48.456;-4.456;2022-12-29T17:39:58;11.01;70.73
74178;DHT22;62540;48.456;-4.456;2022-12-29T17:42:24;10.98;70.79
74178;DHT22;62540;48.456;-4.456;2022-12-29T17:44:49;10.94;70.82
74178;DHT22;62540;48.456;-4.456;2022-12-29T17:47:15;10.90;70.90
74178;DHT22;62540;48.456;-4.456;2022-12-29T17:49:41;10.87;70.93